sensor_id;sensor_type;location;lat;lon;timestamp;P1;durP1;ratioP1;P2;durP2;ratioP2
71902;SDS011;59778;50.310;18.780;2023-01-05T00:13:28;9.67;;;4.50;;
71902;SDS011;59778;50.310;18.780;2023-01-05T00:29:07;9.67;;;3.67;;
71902;SDS011;59778;50.310;18.780;2023-01-05T00:44:28;5.83;;;2.70;;
71902;SDS011;59778;50.310;18.780;2023-01-05T00:59:50;7.17;;;3.23;;
71902;SDS011;59778;50.310;18.780;2023-01-05T01:15:11;7.07;;;2.90;;
71902;SDS011;59778;50.310;18.780;2023-01-05T01:30:33;7.37;;;3.47;;
71902;SDS011;59778;50.310;18.780;2023-01-05T01:45:54;7.27;;;2.80;;
71902;SDS011;59778;50.310;18.780;2023-01-05T02:01:15;8.37;;;2.30;;
71902;SDS011;59778;50.310;18.780;2023-01-05T02:16:44;6.60;;;2.70;;
71902;SDS011;59778;50.310;18.780;2023-01-05T02:32:21;7.20;;;2.93;;
71902;SDS011;59778;50.310;18.780;2023-01-05T02:47:43;5.30;;;2.00;;
71902;SDS011;59778;50.310;18.780;2023-01-05T03:03:16;4.43;;;1.70;;
71902;SDS011;59778;50.310;18.780;2023-01-05T03:18:42;6.27;;;2.20;;
71902;SDS011;59778;50.310;18.780;2023-01-05T03:50:14;6.93;;;1.83;;
71902;SDS011;59778;50.310;18.780;2023-01-05T04:05:35;5.43;;;2.13;;
71902;SDS011;59778;50.310;18.780;2023-01-05T04:20:57;4.80;;;1.77;;
71902;SDS011;59778;50.310;18.780;2023-01-05T04:36:18;10.87;;;2.90;;
71902;SDS011;59778;50.310;18.780;2023-01-05T04:51:39;8.03;;;2.63;;
71902;SDS011;59778;50.310;18.780;2023-01-05T05:07:00;5.27;;;2.00;;
71902;SDS011;59778;50.310;18.780;2023-01-05T05:22:22;5.03;;;1.60;;
71902;SDS011;59778;50.310;18.780;2023-01-05T05:37:43;7.30;;;2.20;;
71902;SDS011;59778;50.310;18.780;2023-01-05T05:53:04;5.80;;;1.70;;
71902;SDS011;59778;50.310;18.780;2023-01-05T06:08:26;13.63;;;4.17;;
71902;SDS011;59778;50.310;18.780;2023-01-05T06:23:49;16.57;;;5.73;;
71902;SDS011;59778;50.310;18.780;2023-01-05T06:39:10;7.43;;;2.40;;
71902;SDS011;59778;50.310;18.780;2023-01-05T06:54:31;5.97;;;2.03;;
71902;SDS011;59778;50.310;18.780;2023-01-05T07:09:53;6.43;;;1.77;;
71902;SDS011;59778;50.310;18.780;2023-01-05T07:25:14;2.17;;;0.60;;
71902;SDS011;59778;50.310;18.780;2023-01-05T07:40:35;2.23;;;0.70;;
71902;SDS011;59778;50.310;18.780;2023-01-05T07:55:57;2.17;;;0.50;;
71902;SDS011;59778;50.310;18.780;2023-01-05T08:11:20;2.83;;;0.70;;
71902;SDS011;59778;50.310;18.780;2023-01-05T08:26:42;3.10;;;0.90;;
71902;SDS011;59778;50.310;18.780;2023-01-05T08:42:03;7.97;;;1.30;;
71902;SDS011;59778;50.310;18.780;2023-01-05T08:57:24;9.83;;;1.50;;
71902;SDS011;59778;50.310;18.780;2023-01-05T09:12:45;8.50;;;0.93;;
71902;SDS011;59778;50.310;18.780;2023-01-05T09:28:06;3.03;;;1.20;;
71902;SDS011;59778;50.310;18.780;2023-01-05T09:43:32;7.77;;;2.50;;
71902;SDS011;59778;50.310;18.780;2023-01-05T10:14:49;5.33;;;1.83;;
71902;SDS011;59778;50.310;18.780;2023-01-05T10:45:42;4.53;;;1.60;;
71902;SDS011;59778;50.310;18.780;2023-01-05T11:16:52;4.43;;;1.30;;
71902;SDS011;59778;50.310;18.780;2023-01-05T11:32:20;5.17;;;1.23;;
71902;SDS011;59778;50.310;18.780;2023-01-05T13:06:17;5.10;;;1.60;;
71902;SDS011;59778;50.310;18.780;2023-01-05T13:21:43;5.83;;;2.17;;
71902;SDS011;59778;50.310;18.780;2023-01-05T14:08:31;7.97;;;2.30;;
71902;SDS011;59778;50.310;18.780;2023-01-05T14:23:56;13.20;;;5.80;;
71902;SDS011;59778;50.310;18.780;2023-01-05T14:39:20;11.43;;;5.27;;
71902;SDS011;59778;50.310;18.780;2023-01-05T15:10:22;12.07;;;4.53;;
71902;SDS011;59778;50.310;18.780;2023-01-05T15:41:39;10.17;;;3.23;;
71902;SDS011;59778;50.310;18.780;2023-01-05T15:57:01;8.73;;;3.00;;
71902;SDS011;59778;50.310;18.780;2023-01-05T16:12:22;6.53;;;2.17;;
71902;SDS011;59778;50.310;18.780;2023-01-05T16:27:47;10.37;;;3.83;;
71902;SDS011;59778;50.310;18.780;2023-01-05T16:43:20;8.30;;;2.77;;
71902;SDS011;59778;50.310;18.780;2023-01-05T16:58:54;7.10;;;2.40;;
71902;SDS011;59778;50.310;18.780;2023-01-05T17:14:15;8.50;;;2.73;;
71902;SDS011;59778;50.310;18.780;2023-01-05T17:29:38;20.20;;;4.50;;
71902;SDS011;59778;50.310;18.780;2023-01-05T17:44:59;9.10;;;2.03;;
71902;SDS011;59778;50.310;18.780;2023-01-05T18:00:21;6.87;;;2.03;;
71902;SDS011;59778;50.310;18.780;2023-01-05T18:15:44;7.60;;;1.90;;
71902;SDS011;59778;50.310;18.780;2023-01-05T18:31:08;5.60;;;1.67;;
71902;SDS011;59778;50.310;18.780;2023-01-05T18:46:30;2.90;;;1.30;;
71902;SDS011;59778;50.310;18.780;2023-01-05T19:01:52;5.80;;;1.60;;
71902;SDS011;59778;50.310;18.780;2023-01-05T19:17:13;7.47;;;1.77;;
71902;SDS011;59778;50.310;18.780;2023-01-05T19:32:34;7.53;;;1.80;;
71902;SDS011;59778;50.310;18.780;2023-01-05T19:47:56;6.27;;;1.50;;
71902;SDS011;59778;50.310;18.780;2023-01-05T20:03:19;11.10;;;2.87;;
71902;SDS011;59778;50.310;18.780;2023-01-05T20:18:40;12.00;;;3.47;;
71902;SDS011;59778;50.310;18.780;2023-01-05T20:34:04;11.00;;;3.43;;
71902;SDS011;59778;50.310;18.780;2023-01-05T20:49:31;13.17;;;3.57;;
71902;SDS011;59778;50.310;18.780;2023-01-05T21:04:54;8.90;;;3.23;;
71902;SDS011;59778;50.310;18.780;2023-01-05T21:20:15;11.00;;;3.57;;
71902;SDS011;59778;50.310;18.780;2023-01-05T21:35:36;10.37;;;3.77;;
71902;SDS011;59778;50.310;18.780;2023-01-05T21:50:58;8.87;;;3.13;;
71902;SDS011;59778;50.310;18.780;2023-01-05T22:06:39;7.57;;;2.63;;
71902;SDS011;59778;50.310;18.780;2023-01-05T22:22:28;7.40;;;1.83;;
71902;SDS011;59778;50.310;18.780;2023-01-05T22:37:51;7.70;;;2.20;;
71902;SDS011;59778;50.310;18.780;2023-01-05T22:53:13;5.03;;;1.80;;
71902;SDS011;59778;50.310;18.780;2023-01-05T23:08:37;2.43;;;0.97;;
71902;SDS011;59778;50.310;18.780;2023-01-05T23:24:03;5.27;;;1.20;;
71902;SDS011;59778;50.310;18.780;2023-01-05T23:39:25;4.90;;;1.00;;
71902;SDS011;59778;50.310;18.780;2023-01-05T23:54:46;4.07;;;1.00;;
